Time;durP1;ratioP1;P1;durP2;ratioP2;P2;SDS_P1;SDS_P2;PMS_P1;PMS_P2;Temp;Humidity;BMP_temperature;BMP_pressure;BME280_temperature;BME280_humidity;BME280_pressure;Samples;Min_cycle;Max_cycle;Signal;HPM_P1;HPM_P2
2023/09/11 00:00:34;;;;;;;38.35;34.55;;;16.90;99.90;;;;;;4908838;29;20664;-67
2023/09/11 00:03:02;;;;;;;43.22;38.83;;;17.00;99.90;;;;;;4910093;29;20058;-67
2023/09/11 00:05:29;;;;;;;39.33;33.83;;;17.00;99.90;;;;;;4906052;29;20050;-68
2023/09/11 00:07:57;;;;;;;35.47;31.73;;;17.00;99.90;;;;;;4894106;29;20139;-67
2023/09/11 00:10:24;;;;;;;34.50;31.02;;;17.00;99.90;;;;;;4909525;29;20047;-69
2023/09/11 00:12:51;;;;;;;42.00;37.55;;;17.00;99.90;;;;;;4909263;29;20695;-66
2023/09/11 00:15:18;;;;;;;41.13;36.95;;;17.00;99.90;;;;;;4907760;29;20131;-69
2023/09/11 00:17:45;;;;;;;41.70;37.40;;;17.00;99.90;;;;;;4907515;29;20076;-67
2023/09/11 00:20:12;;;;;;;40.70;36.90;;;17.00;99.90;;;;;;4908640;29;20071;-68
2023/09/11 00:22:39;;;;;;;38.08;34.22;;;16.90;99.90;;;;;;4908155;29;20060;-70
2023/09/11 00:25:07;;;;;;;43.05;38.78;;;17.00;99.90;;;;;;4908550;29;20056;-71
2023/09/11 00:27:36;;;;;;;42.38;37.92;;;16.90;99.90;;;;;;4910446;29;20163;-66
2023/09/11 00:30:05;;;;;;;42.80;38.47;;;16.90;99.90;;;;;;4908524;29;20055;-71
2023/09/11 00:32:32;;;;;;;42.05;37.53;;;16.90;99.90;;;;;;4908600;29;20114;-70
2023/09/11 00:34:59;;;;;;;37.97;34.10;;;16.90;99.90;;;;;;4908158;29;20048;-68
2023/09/11 00:37:26;;;;;;;41.63;37.30;;;16.90;99.90;;;;;;4909311;29;20040;-71
2023/09/11 00:39:53;;;;;;;43.45;39.00;;;16.90;99.90;;;;;;4879741;29;20494;-68
2023/09/11 00:42:19;;;;;;;41.67;35.70;;;17.00;99.90;;;;;;4908943;29;20044;-73
2023/09/11 00:44:46;;;;;;;39.58;35.40;;;17.00;99.90;;;;;;4909825;29;20052;-75
2023/09/11 00:47:13;;;;;;;39.58;35.45;;;17.00;99.90;;;;;;4907422;29;20056;-73
2023/09/11 00:49:41;;;;;;;45.75;40.97;;;17.00;99.90;;;;;;4908431;29;20142;-69
2023/09/11 00:52:08;;;;;;;38.97;34.95;;;17.00;99.90;;;;;;4909619;29;20080;-75
2023/09/11 00:54:35;;;;;;;35.58;31.85;;;17.00;99.90;;;;;;4909035;29;20091;-66
2023/09/11 00:57:02;;;;;;;34.30;30.65;;;17.00;99.90;;;;;;4908056;29;20207;-67
2023/09/11 00:59:29;;;;;;;36.72;32.80;;;17.00;99.90;;;;;;4909387;29;20036;-75
2023/09/11 01:01:57;;;;;;;37.85;33.88;;;17.00;99.90;;;;;;4907136;29;20063;-67
2023/09/11 01:04:24;;;;;;;32.88;29.40;;;17.00;99.90;;;;;;4910228;29;20087;-66
2023/09/11 01:06:51;;;;;;;32.47;29.13;;;17.00;99.90;;;;;;4906148;29;20040;-73
2023/09/11 01:09:19;;;;;;;30.67;26.80;;;17.00;99.90;;;;;;4906834;29;20056;-70
2023/09/11 01:11:46;;;;;;;30.48;27.45;;;17.00;99.90;;;;;;4907526;29;20092;-67
2023/09/11 01:14:13;;;;;;;29.55;26.45;;;17.00;99.90;;;;;;4910277;29;20394;-67
2023/09/11 01:16:49;;;;;;;31.67;28.23;;;17.00;99.90;;;;;;4890047;29;20741;-69
2023/09/11 01:19:22;;;;;;;30.83;27.80;;;16.90;99.90;;;;;;4908473;29;20048;-67
2023/09/11 01:22:07;;;;;;;35.42;30.25;;;16.90;99.90;;;;;;4910526;29;20056;-70
2023/09/11 01:24:56;;;;;;;31.20;27.92;;;16.90;99.90;;;;;;4895579;29;20096;-67
2023/09/11 01:27:54;;;;;;;37.45;32.00;;;16.80;99.90;;;;;;4912473;29;20060;-66
2023/09/11 01:30:22;;;;;;;31.33;27.98;;;16.80;99.90;;;;;;4912213;29;20052;-67
2023/09/11 01:32:49;;;;;;;28.55;25.50;;;16.80;99.90;;;;;;4912286;29;20123;-70
2023/09/11 01:35:16;;;;;;;36.63;31.38;;;16.90;99.90;;;;;;4908531;29;20060;-74
2023/09/11 01:37:43;;;;;;;34.05;30.48;;;16.80;99.90;;;;;;4910534;29;20044;-73
2023/09/11 01:40:10;;;;;;;37.88;33.88;;;16.80;99.90;;;;;;4890678;29;20052;-66
2023/09/11 01:42:44;;;;;;;33.38;29.85;;;16.90;99.90;;;;;;4911402;29;20056;-69
2023/09/11 01:45:14;;;;;;;33.10;29.60;;;16.90;99.90;;;;;;4910742;29;20059;-72
2023/09/11 01:47:46;;;;;;;36.15;32.53;;;16.90;99.90;;;;;;4910260;29;20063;-67
2023/09/11 01:50:17;;;;;;;30.85;27.58;;;16.90;99.90;;;;;;4907942;29;20048;-70
2023/09/11 01:52:48;;;;;;;32.38;28.98;;;16.90;99.90;;;;;;4904841;29;20056;-69
2023/09/11 01:55:16;;;;;;;31.20;27.98;;;16.90;99.90;;;;;;4919257;29;20059;-75
2023/09/11 01:57:43;;;;;;;33.40;28.20;;;16.90;99.90;;;;;;4903678;29;20059;-68
2023/09/11 02:00:11;;;;;;;31.65;27.48;;;16.90;99.90;;;;;;4924342;29;20056;-68
2023/09/11 02:02:40;;;;;;;37.08;32.10;;;16.90;99.90;;;;;;4896236;29;20506;-66
2023/09/11 02:05:07;;;;;;;31.10;27.60;;;16.90;99.90;;;;;;4909977;29;20048;-66
2023/09/11 02:07:34;;;;;;;30.40;26.70;;;16.90;99.90;;;;;;4908485;29;20072;-68
2023/09/11 02:10:02;;;;;;;31.92;28.20;;;16.90;99.90;;;;;;4909181;29;20446;-73
2023/09/11 02:12:29;;;;;;;35.97;32.17;;;17.00;99.90;;;;;;4912240;29;20051;-70
2023/09/11 02:14:56;;;;;;;34.85;30.52;;;17.00;99.90;;;;;;4909211;29;20048;-66
2023/09/11 02:17:24;;;;;;;37.05;32.58;;;17.00;99.90;;;;;;4910775;29;20443;-67
2023/09/11 02:19:51;;;;;;;36.03;31.02;;;17.00;99.90;;;;;;4909696;29;20417;-66
2023/09/11 02:22:17;;;;;;;35.28;28.67;;;17.00;99.90;;;;;;4908340;29;20044;-69
2023/09/11 02:24:44;;;;;;;36.88;31.73;;;17.10;99.90;;;;;;4909710;29;20119;-72
2023/09/11 02:27:11;;;;;;;39.78;32.63;;;17.10;99.90;;;;;;4909458;29;20060;-66
2023/09/11 02:29:38;;;;;;;31.38;28.02;;;17.10;99.90;;;;;;4909636;29;20111;-70
2023/09/11 02:32:05;;;;;;;31.95;28.48;;;17.10;99.90;;;;;;4908436;29;20055;-66
2023/09/11 02:34:32;;;;;;;33.88;29.52;;;17.10;99.90;;;;;;4909312;29;20128;-69
2023/09/11 02:36:59;;;;;;;31.13;27.77;;;17.10;99.90;;;;;;4892171;29;20061;-74
2023/09/11 02:39:26;;;;;;;35.90;31.88;;;17.10;99.90;;;;;;4907400;29;20154;-69
2023/09/11 02:41:53;;;;;;;30.60;25.95;;;17.10;99.90;;;;;;4912518;29;20115;-67
2023/09/11 02:44:20;;;;;;;33.85;28.05;;;17.20;99.90;;;;;;4909041;29;20049;-70
2023/09/11 02:46:47;;;;;;;31.58;27.50;;;17.10;99.90;;;;;;4909882;29;20135;-68
2023/09/11 02:49:14;;;;;;;40.92;30.95;;;17.20;99.90;;;;;;4911555;29;20055;-68
2023/09/11 02:51:41;;;;;;;33.20;29.73;;;17.20;99.90;;;;;;4892436;29;21220;-69
2023/09/11 02:54:07;;;;;;;40.55;30.55;;;17.20;99.90;;;;;;4893320;29;20558;-74
2023/09/11 02:56:37;;;;;;;36.08;29.33;;;17.20;99.90;;;;;;4910806;29;20054;-66
2023/09/11 02:59:05;;;;;;;40.00;28.75;;;17.20;99.90;;;;;;4910159;29;20052;-67
2023/09/11 03:01:32;;;;;;;32.28;28.10;;;17.20;99.90;;;;;;4912053;29;20044;-71
2023/09/11 03:04:00;;;;;;;38.97;28.63;;;17.20;99.90;;;;;;4910384;29;20135;-66
2023/09/11 03:06:26;;;;;;;33.13;28.52;;;17.20;99.90;;;;;;4909584;29;20048;-69
2023/09/11 03:08:53;;;;;;;33.00;29.02;;;17.20;99.90;;;;;;4908230;29;20489;-67
2023/09/11 03:11:21;;;;;;;35.92;29.77;;;17.20;99.90;;;;;;4911425;29;20420;-68
2023/09/11 03:13:49;;;;;;;35.40;29.63;;;17.20;99.90;;;;;;4909582;29;20779;-65
2023/09/11 03:16:16;;;;;;;49.42;29.08;;;17.20;99.90;;;;;;4912817;29;20466;-70
2023/09/11 03:18:50;;;;;;;36.97;29.05;;;17.20;99.90;;;;;;4907637;29;20060;-67
2023/09/11 03:21:17;;;;;;;36.72;27.52;;;17.20;99.90;;;;;;4908151;29;20044;-69
2023/09/11 03:23:44;;;;;;;44.67;30.45;;;17.20;99.90;;;;;;4908807;29;20055;-71
2023/09/11 03:26:14;;;;;;;41.88;33.65;;;17.10;99.90;;;;;;4893575;29;20052;-68
2023/09/11 03:28:51;;;;;;;42.33;32.97;;;17.10;99.90;;;;;;4907616;29;20058;-68
2023/09/11 03:31:22;;;;;;;43.35;35.13;;;17.10;99.90;;;;;;4907695;29;20050;-71
2023/09/11 03:33:50;;;;;;;46.42;34.83;;;17.10;99.90;;;;;;4893390;29;20422;-66
2023/09/11 03:36:18;;;;;;;43.05;32.63;;;17.10;99.90;;;;;;4914306;29;20043;-71
2023/09/11 03:38:46;;;;;;;35.80;31.02;;;17.10;99.90;;;;;;4912114;29;20051;-69
2023/09/11 03:41:14;;;;;;;40.83;32.15;;;17.10;99.90;;;;;;4908518;29;20060;-68
2023/09/11 03:43:41;;;;;;;44.60;33.75;;;17.10;99.90;;;;;;4913575;29;20396;-67
2023/09/11 03:46:12;;;;;;;37.63;31.55;;;17.10;99.90;;;;;;4908240;29;20083;-67
2023/09/11 03:48:41;;;;;;;40.67;32.85;;;17.10;99.90;;;;;;4885767;29;20050;-68
2023/09/11 03:51:09;;;;;;;40.40;30.13;;;17.00;99.90;;;;;;4906936;29;20114;-67
2023/09/11 03:53:42;;;;;;;39.90;32.97;;;17.10;99.90;;;;;;4907889;29;20059;-66
2023/09/11 03:56:12;;;;;;;34.80;28.33;;;17.10;99.90;;;;;;4888864;29;20048;-66
2023/09/11 03:58:41;;;;;;;37.10;30.52;;;17.00;99.90;;;;;;4904585;29;20048;-67
2023/09/11 04:01:08;;;;;;;35.38;29.77;;;17.10;99.90;;;;;;4909039;29;20076;-72
2023/09/11 04:03:35;;;;;;;38.90;31.45;;;17.10;99.90;;;;;;4904482;29;20143;-68
2023/09/11 04:06:02;;;;;;;38.70;31.15;;;17.10;99.90;;;;;;4908142;29;20103;-67
2023/09/11 04:08:29;;;;;;;37.33;29.73;;;17.10;99.90;;;;;;4904559;29;20063;-69
2023/09/11 04:10:56;;;;;;;39.60;31.27;;;17.10;99.90;;;;;;4907939;29;20058;-67
2023/09/11 04:13:23;;;;;;;35.58;31.48;;;17.10;99.90;;;;;;4910022;29;20056;-69
2023/09/11 04:15:50;;;;;;;39.55;30.75;;;17.10;99.90;;;;;;4909700;29;20084;-69
2023/09/11 04:18:17;;;;;;;37.30;27.95;;;17.10;99.90;;;;;;4908360;29;20084;-69
2023/09/11 04:20:46;;;;;;;37.03;30.70;;;17.10;99.90;;;;;;4900537;29;20139;-70
2023/09/11 04:23:13;;;;;;;36.10;30.05;;;17.10;99.90;;;;;;4908178;29;20162;-67
2023/09/11 04:25:44;;;;;;;34.35;28.75;;;17.10;99.90;;;;;;4908058;29;20036;-71
2023/09/11 04:28:11;;;;;;;33.67;30.15;;;17.10;99.90;;;;;;4906703;29;20044;-66
2023/09/11 04:30:38;;;;;;;40.25;32.53;;;17.10;99.90;;;;;;4891061;29;20051;-67
2023/09/11 04:33:05;;;;;;;40.38;27.50;;;17.10;99.90;;;;;;4898382;29;20052;-66
2023/09/11 04:35:32;;;;;;;38.45;28.45;;;17.10;99.90;;;;;;4912910;29;20156;-70
2023/09/11 04:37:59;;;;;;;36.58;27.50;;;17.10;99.90;;;;;;4906448;29;20048;-66
2023/09/11 04:40:27;;;;;;;36.42;28.08;;;17.20;99.90;;;;;;4907776;29;20448;-68
2023/09/11 04:42:55;;;;;;;38.05;27.00;;;17.10;99.90;;;;;;4909305;29;20079;-67
2023/09/11 04:45:21;;;;;;;31.10;27.15;;;17.10;99.90;;;;;;4892892;29;20059;-66
2023/09/11 04:47:48;;;;;;;28.90;25.42;;;17.10;99.90;;;;;;4892164;29;20052;-66
2023/09/11 04:50:16;;;;;;;31.95;25.10;;;17.20;99.90;;;;;;4904391;29;20476;-68
2023/09/11 04:52:43;;;;;;;28.25;24.00;;;17.20;99.90;;;;;;4908961;29;20131;-66
2023/09/11 04:55:11;;;;;;;33.58;24.85;;;17.20;99.90;;;;;;4894581;29;20425;-67
2023/09/11 04:57:39;;;;;;;29.38;24.10;;;17.20;99.90;;;;;;4911675;29;20103;-70
2023/09/11 05:00:10;;;;;;;32.55;25.55;;;17.20;99.90;;;;;;4906600;29;20143;-70
2023/09/11 05:02:40;;;;;;;27.58;24.60;;;17.20;99.90;;;;;;4911837;29;20223;-66
2023/09/11 05:05:07;;;;;;;32.17;25.38;;;17.20;99.90;;;;;;4895678;29;20059;-73
2023/09/11 05:07:34;;;;;;;27.80;22.90;;;17.20;99.90;;;;;;4911319;29;20048;-70
2023/09/11 05:10:05;;;;;;;29.40;24.20;;;17.20;99.90;;;;;;4907738;29;20068;-66
2023/09/11 05:12:32;;;;;;;23.73;20.73;;;17.20;99.90;;;;;;4903756;29;20063;-73
2023/09/11 05:14:59;;;;;;;29.23;24.50;;;17.20;99.90;;;;;;4903922;29;20138;-70
2023/09/11 05:17:26;;;;;;;27.95;23.63;;;17.20;99.90;;;;;;4910303;29;20055;-70
2023/09/11 05:19:53;;;;;;;28.77;24.67;;;17.20;99.90;;;;;;4910861;29;20712;-68
2023/09/11 05:22:20;;;;;;;27.80;24.42;;;17.20;99.90;;;;;;4911406;29;20048;-71
2023/09/11 05:24:47;;;;;;;31.75;26.00;;;17.30;99.90;;;;;;4912791;29;20052;-66
2023/09/11 05:27:14;;;;;;;34.47;26.88;;;17.30;99.90;;;;;;4913425;29;20554;-67
2023/09/11 05:29:41;;;;;;;36.97;26.50;;;17.30;99.90;;;;;;4911327;29;20044;-71
2023/09/11 05:32:08;;;;;;;34.15;28.20;;;17.30;99.90;;;;;;4912101;29;20095;-69
2023/09/11 05:34:35;;;;;;;29.65;24.40;;;17.40;99.90;;;;;;4911949;29;20187;-71
2023/09/11 05:37:02;;;;;;;40.65;27.83;;;17.40;99.90;;;;;;4910643;29;20040;-66
2023/09/11 05:39:29;;;;;;;29.27;24.48;;;17.30;99.90;;;;;;4913657;29;20050;-70
2023/09/11 05:41:56;;;;;;;32.90;27.45;;;17.40;99.90;;;;;;4911785;29;20058;-67
2023/09/11 05:44:23;;;;;;;32.17;24.27;;;17.40;99.90;;;;;;4912269;29;20044;-69
2023/09/11 05:46:50;;;;;;;33.47;27.40;;;17.40;99.90;;;;;;4912246;29;20079;-67
2023/09/11 05:49:17;;;;;;;30.02;26.00;;;17.40;99.90;;;;;;4912373;29;20135;-67
2023/09/11 05:51:44;;;;;;;36.95;26.08;;;17.30;99.90;;;;;;4896678;29;20872;-67
2023/09/11 05:54:11;;;;;;;29.35;26.23;;;17.30;99.90;;;;;;4912342;29;20533;-74
2023/09/11 05:56:38;;;;;;;29.00;24.25;;;17.30;99.90;;;;;;4912553;29;20044;-66
2023/09/11 05:59:05;;;;;;;33.17;25.42;;;17.30;99.90;;;;;;4909789;29;20107;-67
2023/09/11 06:01:32;;;;;;;33.47;24.92;;;17.30;99.90;;;;;;4908296;29;20060;-73
2023/09/11 06:03:59;;;;;;;31.45;24.15;;;17.30;99.90;;;;;;4912644;29;20129;-66
2023/09/11 06:06:26;;;;;;;29.27;22.88;;;17.30;99.90;;;;;;4912041;29;20044;-67
2023/09/11 06:08:54;;;;;;;30.30;23.55;;;17.40;99.90;;;;;;4911243;29;20060;-69
2023/09/11 06:11:21;;;;;;;32.97;24.95;;;17.30;99.90;;;;;;4913034;29;20040;-70
2023/09/11 06:13:49;;;;;;;32.95;25.05;;;17.30;99.90;;;;;;4911719;29;20542;-74
2023/09/11 06:16:16;;;;;;;25.23;20.58;;;17.30;99.90;;;;;;4911717;29;20045;-70
2023/09/11 06:18:44;;;;;;;30.85;23.42;;;17.40;99.90;;;;;;4913441;29;20584;-66
2023/09/11 06:21:12;;;;;;;29.58;24.52;;;17.40;99.90;;;;;;4912838;29;20048;-76
2023/09/11 06:23:39;;;;;;;28.27;23.58;;;17.30;99.90;;;;;;4911300;29;20061;-70
2023/09/11 06:26:06;;;;;;;25.40;21.90;;;17.30;99.90;;;;;;4913054;29;20491;-69
2023/09/11 06:28:33;;;;;;;27.27;21.80;;;17.30;99.90;;;;;;4913128;29;20577;-68
2023/09/11 06:31:00;;;;;;;26.95;22.45;;;17.30;99.90;;;;;;4912564;29;20075;-66
2023/09/11 06:33:27;;;;;;;25.27;22.60;;;17.30;99.90;;;;;;4913954;29;20534;-66
2023/09/11 06:35:55;;;;;;;25.05;22.38;;;17.40;99.90;;;;;;4908222;29;20403;-71
2023/09/11 06:38:22;;;;;;;26.00;20.27;;;17.40;99.90;;;;;;4911933;29;20533;-67
2023/09/11 06:40:49;;;;;;;28.38;22.45;;;17.30;99.90;;;;;;4908736;29;20642;-67
2023/09/11 06:43:16;;;;;;;28.33;22.05;;;17.30;99.90;;;;;;4910186;29;20047;-73
2023/09/11 06:45:43;;;;;;;26.38;22.42;;;17.30;99.90;;;;;;4910433;29;20292;-66
2023/09/11 06:48:13;;;;;;;25.95;20.00;;;17.30;99.90;;;;;;4906734;29;20411;-67
2023/09/11 06:50:40;;;;;;;26.20;22.23;;;17.40;99.90;;;;;;4909373;29;20040;-68
2023/09/11 06:53:08;;;;;;;23.13;20.60;;;17.40;99.90;;;;;;4911352;29;20129;-72
2023/09/11 06:55:35;;;;;;;21.15;18.90;;;17.40;99.90;;;;;;4911857;29;20498;-72
2023/09/11 06:58:02;;;;;;;26.38;19.98;;;17.30;99.90;;;;;;4909658;29;20083;-74
2023/09/11 07:00:29;;;;;;;24.17;20.33;;;17.40;99.90;;;;;;4911735;29;20629;-69
2023/09/11 07:02:56;;;;;;;28.85;19.58;;;17.40;99.90;;;;;;4909012;29;20139;-71
2023/09/11 07:05:25;;;;;;;24.15;19.33;;;17.50;99.90;;;;;;4909868;29;20048;-67
2023/09/11 07:07:52;;;;;;;26.88;19.85;;;17.50;99.90;;;;;;4910443;29;20059;-70
2023/09/11 07:10:19;;;;;;;22.58;20.17;;;17.50;99.90;;;;;;4911212;29;20107;-68
2023/09/11 07:13:04;;;;;;;20.48;18.30;;;17.60;99.90;;;;;;4911784;29;20071;-67
2023/09/11 07:15:31;;;;;;;22.10;18.17;;;17.50;99.90;;;;;;4911228;29;20463;-68
2023/09/11 07:17:58;;;;;;;21.35;16.17;;;17.50;99.90;;;;;;4911434;29;20052;-70
2023/09/11 07:20:25;;;;;;;25.40;18.33;;;17.50;99.90;;;;;;4910611;29;20067;-68
2023/09/11 07:22:52;;;;;;;21.35;16.77;;;17.50;99.90;;;;;;4909436;29;20060;-67
2023/09/11 07:25:22;;;;;;;20.52;16.17;;;17.60;99.90;;;;;;4909997;29;20051;-70
2023/09/11 07:27:54;;;;;;;20.08;18.00;;;17.60;99.90;;;;;;4909395;29;20395;-67
2023/09/11 07:30:21;;;;;;;19.17;16.10;;;17.60;99.90;;;;;;4911160;29;20032;-71
2023/09/11 07:32:47;;;;;;;20.02;16.60;;;17.70;99.90;;;;;;4910347;29;20087;-67
2023/09/11 07:35:15;;;;;;;26.85;19.63;;;17.70;99.90;;;;;;4908971;29;20072;-66
2023/09/11 07:37:42;;;;;;;25.45;17.98;;;17.60;99.90;;;;;;4908112;29;20059;-67
2023/09/11 07:40:09;;;;;;;20.52;18.23;;;17.50;99.90;;;;;;4910320;29;20048;-69
2023/09/11 07:42:36;;;;;;;21.42;17.70;;;17.60;99.90;;;;;;4912346;29;20120;-69
2023/09/11 07:45:03;;;;;;;22.35;18.67;;;17.70;99.90;;;;;;4911912;29;20115;-70
2023/09/11 07:47:30;;;;;;;18.45;15.40;;;17.70;99.90;;;;;;4913272;29;20506;-71
2023/09/11 07:49:58;;;;;;;18.25;15.18;;;17.70;99.90;;;;;;4905298;29;20131;-66
2023/09/11 07:52:24;;;;;;;20.08;15.65;;;17.80;99.90;;;;;;4911001;29;20051;-69
2023/09/11 07:54:51;;;;;;;21.02;15.90;;;17.90;99.90;;;;;;4915102;29;20055;-71
2023/09/11 07:57:18;;;;;;;18.33;15.98;;;17.90;99.90;;;;;;4911274;29;20130;-68
2023/09/11 07:59:45;;;;;;;19.08;15.68;;;17.90;99.90;;;;;;4910700;29;20044;-66
2023/09/11 08:02:12;;;;;;;20.83;17.35;;;18.00;99.90;;;;;;4908114;29;20462;-69
2023/09/11 08:04:39;;;;;;;20.33;16.95;;;18.00;99.90;;;;;;4911596;29;20055;-72
2023/09/11 08:07:06;;;;;;;17.90;15.88;;;18.10;99.90;;;;;;4916414;29;20048;-73
2023/09/11 08:09:33;;;;;;;20.38;14.82;;;18.10;99.90;;;;;;4914277;29;20048;-69
2023/09/11 08:12:00;;;;;;;19.60;17.42;;;18.20;99.90;;;;;;4911014;29;20071;-69
2023/09/11 08:14:27;;;;;;;18.42;16.42;;;18.20;99.90;;;;;;4910885;29;20102;-68
2023/09/11 08:16:55;;;;;;;19.05;14.95;;;18.20;99.90;;;;;;4909392;29;20043;-68
2023/09/11 08:19:22;;;;;;;16.67;14.43;;;18.20;99.90;;;;;;4908471;29;20127;-67
2023/09/11 08:21:49;;;;;;;16.77;14.70;;;18.20;99.90;;;;;;4909791;29;20059;-68
2023/09/11 08:24:15;;;;;;;18.42;14.52;;;18.30;99.90;;;;;;4907348;29;20044;-68
2023/09/11 08:26:42;;;;;;;14.80;12.70;;;18.30;99.90;;;;;;4908030;29;20059;-77
2023/09/11 08:29:12;;;;;;;15.05;13.05;;;18.30;99.90;;;;;;4910101;29;20052;-74
2023/09/11 08:31:38;;;;;;;14.68;12.38;;;18.40;99.90;;;;;;4907457;29;20079;-75
2023/09/11 08:34:05;;;;;;;14.90;12.98;;;18.50;99.90;;;;;;4912107;29;20084;-70
2023/09/11 08:36:33;;;;;;;15.32;11.50;;;18.50;99.90;;;;;;4909761;29;20126;-68
2023/09/11 08:39:00;;;;;;;12.13;10.75;;;18.40;99.90;;;;;;4908481;29;20542;-70
2023/09/11 08:41:27;;;;;;;14.27;12.20;;;18.40;99.90;;;;;;4909926;29;20453;-68
2023/09/11 08:43:54;;;;;;;12.20;10.90;;;18.50;99.90;;;;;;4911155;29;20108;-69
2023/09/11 08:46:23;;;;;;;15.02;12.73;;;18.60;99.90;;;;;;4908246;29;20399;-70
2023/09/11 08:48:54;;;;;;;14.50;12.65;;;18.60;99.90;;;;;;4909787;29;20048;-71
2023/09/11 08:51:36;;;;;;;12.85;11.55;;;18.60;99.90;;;;;;4906698;29;20082;-71
2023/09/11 08:54:04;;;;;;;12.05;10.75;;;18.50;99.90;;;;;;4906918;29;20087;-66
2023/09/11 08:56:32;;;;;;;14.10;12.70;;;18.50;99.90;;;;;;4907788;29;20103;-71
2023/09/11 08:59:00;;;;;;;13.75;11.98;;;18.60;99.90;;;;;;4905863;29;20147;-69
2023/09/11 09:01:28;;;;;;;13.95;11.82;;;18.50;99.90;;;;;;4905565;29;20052;-67
2023/09/11 09:03:58;;;;;;;14.07;11.07;;;18.40;99.90;;;;;;4907885;29;20047;-67
2023/09/11 09:06:27;;;;;;;16.13;12.83;;;18.50;99.90;;;;;;4908054;29;20048;-68
2023/09/11 09:08:54;;;;;;;14.15;12.68;;;18.50;99.90;;;;;;4907413;29;20103;-70
2023/09/11 09:11:22;;;;;;;13.98;12.55;;;18.50;99.90;;;;;;4908518;29;20469;-71
2023/09/11 09:13:49;;;;;;;13.40;11.75;;;18.60;99.90;;;;;;4910005;29;20044;-68
2023/09/11 09:16:16;;;;;;;15.55;12.80;;;18.70;99.90;;;;;;4908768;29;20095;-70
2023/09/11 09:18:49;;;;;;;14.75;12.65;;;18.80;99.90;;;;;;4911006;29;20041;-69
2023/09/11 09:21:17;;;;;;;14.70;11.10;;;18.90;99.90;;;;;;4910635;29;20063;-74
2023/09/11 09:23:44;;;;;;;13.93;12.48;;;19.00;99.90;;;;;;4909195;29;20044;-67
2023/09/11 09:26:12;;;;;;;15.35;12.50;;;19.20;99.90;;;;;;4909823;29;20055;-76
2023/09/11 09:28:47;;;;;;;18.70;12.93;;;19.20;99.90;;;;;;4909932;29;20891;-69
2023/09/11 09:31:24;;;;;;;12.00;10.73;;;19.50;99.90;;;;;;4910233;29;20095;-68
2023/09/11 09:33:53;;;;;;;13.90;12.55;;;19.50;99.90;;;;;;4909759;29;20052;-70
2023/09/11 09:36:21;;;;;;;13.77;12.00;;;19.60;99.90;;;;;;4908617;29;20318;-69
2023/09/11 09:38:49;;;;;;;19.60;11.82;;;19.70;99.90;;;;;;4910042;29;20058;-73
2023/09/11 09:41:20;;;;;;;13.27;11.88;;;19.80;99.90;;;;;;4912098;29;20044;-70
2023/09/11 09:43:52;;;;;;;13.57;11.85;;;19.80;99.90;;;;;;4909836;29;20226;-69
2023/09/11 09:46:22;;;;;;;19.17;12.90;;;19.40;99.90;;;;;;4909890;29;20661;-68
2023/09/11 09:48:50;;;;;;;12.68;11.35;;;19.30;99.90;;;;;;4912725;29;20059;-68
2023/09/11 09:51:18;;;;;;;14.80;12.00;;;19.20;99.90;;;;;;4911524;29;20051;-70
2023/09/11 09:53:46;;;;;;;16.75;12.38;;;19.10;99.90;;;;;;4912193;29;20071;-67
2023/09/11 09:56:15;;;;;;;14.48;12.45;;;19.00;99.90;;;;;;4913088;29;20048;-68
2023/09/11 09:58:48;;;;;;;16.40;12.68;;;18.90;99.90;;;;;;4912587;29;20099;-68
2023/09/11 10:01:17;;;;;;;12.73;11.40;;;18.80;99.90;;;;;;4908643;29;20052;-70
2023/09/11 10:03:50;;;;;;;15.90;13.13;;;18.90;99.90;;;;;;4912222;29;20151;-66
2023/09/11 10:06:27;;;;;;;13.40;11.95;;;18.80;99.90;;;;;;4911520;29;20048;-75
2023/09/11 10:09:24;;;;;;;15.23;11.98;;;18.60;99.90;;;;;;4912324;29;20052;-70
2023/09/11 10:11:51;;;;;;;14.23;12.57;;;18.70;99.90;;;;;;4900942;29;20055;-72
2023/09/11 10:14:18;;;;;;;16.13;11.85;;;18.70;99.90;;;;;;4915114;29;20059;-71
2023/09/11 10:16:46;;;;;;;12.18;10.38;;;18.80;99.90;;;;;;4909798;29;20053;-69
2023/09/11 10:19:13;;;;;;;12.60;10.77;;;18.80;99.90;;;;;;4911831;29;20048;-69
2023/09/11 10:21:40;;;;;;;15.98;12.45;;;18.90;99.90;;;;;;4906725;29;20147;-67
2023/09/11 10:24:10;;;;;;;15.07;11.50;;;18.90;99.90;;;;;;4912647;29;20095;-68
2023/09/11 10:26:55;;;;;;;15.23;12.05;;;18.90;99.90;;;;;;4912879;29;20054;-67
2023/09/11 10:29:36;;;;;;;14.95;12.10;;;19.00;99.90;;;;;;4911786;29;20075;-72
2023/09/11 10:32:15;;;;;;;13.25;11.77;;;18.90;99.90;;;;;;4909958;29;20191;-66
2023/09/11 10:34:41;;;;;;;13.40;12.00;;;19.00;99.90;;;;;;4907906;29;20051;-71
2023/09/11 10:37:09;;;;;;;15.45;11.52;;;19.00;99.90;;;;;;4911731;29;20048;-67
2023/09/11 10:39:37;;;;;;;12.70;11.35;;;18.90;99.90;;;;;;4910995;29;20071;-71
2023/09/11 10:42:05;;;;;;;13.65;12.30;;;18.80;99.90;;;;;;4907002;29;20052;-69
2023/09/11 10:44:36;;;;;;;13.88;12.25;;;18.70;99.90;;;;;;4908084;29;20074;-71
2023/09/11 10:47:04;;;;;;;16.05;11.35;;;18.80;99.90;;;;;;4910369;29;20044;-69
2023/09/11 10:49:40;;;;;;;12.80;11.43;;;18.80;99.90;;;;;;4906503;29;20049;-68
2023/09/11 10:52:08;;;;;;;14.65;11.00;;;18.80;99.90;;;;;;4906157;29;20048;-68
2023/09/11 10:54:35;;;;;;;14.45;10.88;;;18.80;99.90;;;;;;4908155;29;20055;-67
2023/09/11 10:57:04;;;;;;;11.65;10.27;;;19.00;99.90;;;;;;4910461;29;20052;-67
2023/09/11 10:59:32;;;;;;;14.73;10.82;;;18.90;99.90;;;;;;4908992;29;20519;-72
2023/09/11 11:01:59;;;;;;;13.80;12.20;;;19.00;99.90;;;;;;4910531;29;20059;-69
2023/09/11 11:04:30;;;;;;;15.25;13.65;;;18.90;99.90;;;;;;4909232;29;20044;-68
2023/09/11 11:06:59;;;;;;;18.42;12.75;;;18.90;99.90;;;;;;4907614;29;20340;-67
2023/09/11 11:09:30;;;;;;;13.10;10.30;;;18.80;99.90;;;;;;4911085;29;20092;-69
2023/09/11 11:12:04;;;;;;;11.90;10.68;;;18.70;99.90;;;;;;4912096;29;20052;-66
2023/09/11 11:14:32;;;;;;;12.50;11.20;;;18.80;99.90;;;;;;4911159;29;20052;-71
2023/09/11 11:17:10;;;;;;;12.30;10.57;;;18.80;99.90;;;;;;4910235;29;20501;-67
2023/09/11 11:20:00;;;;;;;13.38;10.02;;;18.90;99.90;;;;;;4909688;29;20059;-73
2023/09/11 11:22:38;;;;;;;14.27;12.15;;;18.90;99.90;;;;;;4908880;29;20059;-68
2023/09/11 11:25:08;;;;;;;10.25;9.25;;;18.80;99.90;;;;;;4908940;29;20067;-69
2023/09/11 11:27:35;;;;;;;;;;;18.80;99.90;;;;;;4910732;29;20055;-69
2023/09/11 11:30:04;;;;;;;12.45;10.20;;;18.90;99.90;;;;;;4910770;29;19930;-69
2023/09/11 11:32:34;;;;;;;11.57;10.18;;;19.00;99.90;;;;;;4907479;29;20143;-69
2023/09/11 11:35:04;;;;;;;12.85;10.45;;;19.00;99.90;;;;;;4909156;29;20068;-69
2023/09/11 11:37:32;;;;;;;10.60;9.50;;;19.00;99.90;;;;;;4908081;29;20049;-74
2023/09/11 11:40:08;;;;;;;11.82;10.00;;;19.00;99.90;;;;;;4910896;29;20515;-73
2023/09/11 11:42:40;;;;;;;11.88;10.27;;;19.00;99.90;;;;;;4907369;29;20052;-71
2023/09/11 11:45:08;;;;;;;10.95;9.68;;;18.90;99.90;;;;;;4893232;29;20119;-69
2023/09/11 11:47:36;;;;;;;13.48;10.65;;;19.10;99.90;;;;;;4909075;29;20058;-67
2023/09/11 11:50:07;;;;;;;14.25;12.75;;;19.10;99.90;;;;;;4908670;29;20116;-68
2023/09/11 11:52:35;;;;;;;18.75;12.38;;;19.00;99.90;;;;;;4908824;29;20159;-67
2023/09/11 11:55:21;;;;;;;20.33;11.98;;;18.90;99.90;;;;;;4908328;29;20135;-69
2023/09/11 11:57:55;;;;;;;17.40;11.70;;;19.00;99.90;;;;;;4909470;29;20063;-68
2023/09/11 12:00:22;;;;;;;16.50;11.20;;;19.10;99.90;;;;;;4910977;29;20529;-68
2023/09/11 12:02:49;;;;;;;15.68;12.57;;;19.20;99.90;;;;;;4909847;29;20052;-68
2023/09/11 12:05:17;;;;;;;14.60;11.60;;;19.30;99.90;;;;;;4905723;29;20051;-70
2023/09/11 12:07:44;;;;;;;15.43;12.52;;;19.30;99.90;;;;;;4911110;29;20044;-69
2023/09/11 12:10:11;;;;;;;13.98;11.88;;;19.30;99.90;;;;;;4910460;29;20083;-70
2023/09/11 12:12:41;;;;;;;12.68;10.20;;;19.20;99.90;;;;;;4908646;29;20044;-67
2023/09/11 12:15:10;;;;;;;14.90;11.95;;;19.00;99.90;;;;;;4909037;29;20127;-67
2023/09/11 12:17:46;;;;;;;12.00;10.20;;;18.80;99.90;;;;;;4909668;29;20041;-67
2023/09/11 12:20:18;;;;;;;14.18;12.10;;;18.90;99.90;;;;;;4906712;29;20052;-67
2023/09/11 12:22:46;;;;;;;12.30;10.85;;;18.70;99.90;;;;;;4906184;29;20060;-67
2023/09/11 12:25:14;;;;;;;12.02;10.05;;;18.80;99.90;;;;;;4906013;29;20131;-69
2023/09/11 12:27:43;;;;;;;12.50;11.20;;;18.90;99.90;;;;;;4909855;29;20047;-67
2023/09/11 12:30:11;;;;;;;12.40;10.15;;;18.80;99.90;;;;;;4906796;29;20811;-67
2023/09/11 12:32:39;;;;;;;13.20;11.82;;;18.60;99.90;;;;;;4911344;29;20056;-70
2023/09/11 12:35:06;;;;;;;11.93;10.73;;;18.80;99.90;;;;;;4906420;29;20048;-69